Time;durP1;ratioP1;P1;durP2;ratioP2;P2;SDS_P1;SDS_P2;PMS_P1;PMS_P2;Temp;Humidity;BMP_temperature;BMP_pressure;BME280_temperature;BME280_humidity;BME280_pressure;Samples;Min_cycle;Max_cycle;Signal;HPM_P1;HPM_P2
2021/01/04 08:29:26;;;;;;;67.00;45.75;;;;;;;1.68;84.33;98438.16;1644453;83;21554;-69
2021/01/04 08:41:26;;;;;;;61.18;42.27;;;;;;;1.87;84.15;98436.23;1678945;83;21038;-66
2021/01/04 08:43:56;;;;;;;69.87;47.90;;;;;;;1.90;84.05;98425.53;1682779;85;21052;-68
2021/01/04 08:46:30;;;;;;;67.12;44.38;;;;;;;1.92;83.95;98425.88;1682271;85;20995;-67
2021/01/04 08:49:20;;;;;;;68.97;49.50;;;;;;;1.95;83.93;98420.94;1683420;85;21428;-70
2021/01/04 08:51:49;;;;;;;68.80;48.63;;;;;;;1.98;83.88;98428.78;1683412;85;21618;-70
2021/01/04 08:54:30;;;;;;;63.17;45.33;;;;;;;2.02;84.09;98426.45;1683378;85;21011;-68
2021/01/04 08:57:09;;;;;;;64.03;45.38;;;;;;;2.04;84.11;98425.92;1683489;85;21581;-67
2021/01/04 08:59:53;;;;;;;69.80;44.35;;;;;;;2.08;83.97;98431.54;1720935;80;21012;-67
2021/01/04 09:02:38;;;;;;;58.45;41.68;;;;;;;2.12;83.66;98430.96;1749182;81;21419;-67
2021/01/04 09:05:09;;;;;;;56.28;40.63;;;;;;;2.17;83.63;98437.81;1772565;81;21027;-68
2021/01/04 09:07:52;;;;;;;56.35;39.00;;;;;;;2.22;83.47;98431.50;1772606;81;21042;-68
2021/01/04 09:10:41;;;;;;;58.90;41.75;;;;;;;2.23;83.34;98426.62;1772636;81;20944;-71
2021/01/04 09:13:37;;;;;;;57.85;39.63;;;;;;;2.26;83.19;98431.81;1772675;81;21443;-71
2021/01/04 09:16:20;;;;;;;53.63;36.55;;;;;;;2.28;83.00;98425.52;1772677;81;21366;-72
2021/01/04 09:18:51;;;;;;;49.55;36.13;;;;;;;2.29;83.02;98420.63;1772705;81;21436;-69
2021/01/04 09:21:35;;;;;;;48.10;34.65;;;;;;;2.32;82.88;98422.32;1772650;81;20952;-74
2021/01/04 09:24:27;;;;;;;46.73;34.63;;;;;;;2.33;82.88;98418.73;1772770;81;20956;-71
2021/01/04 09:27:04;;;;;;;49.05;35.45;;;;;;;2.34;82.96;98420.47;1772657;80;20932;-68
2021/01/04 09:29:38;;;;;;;50.05;33.60;;;;;;;2.34;82.97;98419.14;1772651;81;21359;-62
2021/01/04 09:32:13;;;;;;;44.48;32.48;;;;;;;2.37;82.96;98420.36;1772507;81;20925;-65
2021/01/04 09:34:41;;;;;;;44.58;30.90;;;;;;;2.38;82.93;98415.91;1772667;81;21461;-64
2021/01/04 09:37:16;;;;;;;45.12;34.33;;;;;;;2.39;82.96;98422.49;1772584;81;21000;-64
2021/01/04 09:39:44;;;;;;;46.83;35.43;;;;;;;2.41;82.85;98418.46;1766464;80;21199;-67
2021/01/04 09:42:24;;;;;;;49.85;33.78;;;;;;;2.41;82.59;98421.96;1735464;82;22289;-64
2021/01/04 09:44:52;;;;;;;136.32;92.75;;;;;;;2.42;82.49;98407.80;1735296;82;21069;-62
2021/01/04 09:47:44;;;;;;;97.62;66.12;;;;;;;2.41;82.86;98402.08;1735265;82;21562;-62
2021/01/04 09:50:38;;;;;;;87.17;58.40;;;;;;;2.44;84.11;98401.12;1735995;82;20946;-63
2021/01/04 09:53:33;;;;;;;73.05;48.15;;;;;;;2.49;85.32;98412.41;1736168;82;21018;-63
2021/01/04 09:56:09;;;;;;;64.67;47.27;;;;;;;2.55;85.30;98403.38;1736249;82;21350;-64
2021/01/04 09:58:37;;;;;;;57.95;42.70;;;;;;;2.59;84.49;98398.38;1736259;82;21546;-64
2021/01/04 10:01:14;;;;;;;58.70;42.50;;;;;;;2.61;83.85;98401.83;1736167;82;20899;-63
2021/01/04 10:03:57;;;;;;;66.87;48.52;;;;;;;2.62;83.40;98404.90;1736167;82;20970;-63
2021/01/04 10:06:29;;;;;;;66.30;44.03;;;;;;;2.63;83.08;98401.30;1736378;82;20954;-63
2021/01/04 10:08:56;;;;;;;59.63;43.00;;;;;;;2.62;82.87;98398.27;1736219;82;21188;-63
2021/01/04 10:11:24;;;;;;;55.33;38.92;;;;;;;2.62;82.74;98385.01;1736161;82;20966;-65
2021/01/04 10:13:52;;;;;;;62.10;42.73;;;;;;;2.61;82.67;98387.25;1713438;82;20946;-64
2021/01/04 10:16:21;;;;;;;55.65;39.78;;;;;;;2.60;82.65;98384.18;1713377;82;20974;-63
2021/01/04 10:18:53;;;;;;;55.98;39.38;;;;;;;2.61;82.56;98375.31;1713256;82;21014;-66
2021/01/04 10:21:28;;;;;;;;;;;;;;;2.60;82.59;98375.78;1738803;82;21337;-64
2021/01/04 10:23:59;;;;;;;62.37;41.60;;;;;;;2.59;82.70;98364.77;1736443;82;20154;-64
2021/01/04 10:26:31;;;;;;;;;;;;;;;2.60;82.88;98381.53;1736342;82;21053;-64
2021/01/04 10:28:58;;;;;;;63.73;43.08;;;;;;;2.61;82.97;98381.47;1735464;82;20143;-63
2021/01/04 10:31:28;;;;;;;54.73;37.93;;;;;;;2.60;83.03;98378.88;1687129;82;20946;-64
2021/01/04 10:34:13;;;;;;;48.58;33.58;;;;;;;2.62;82.87;98378.38;1736209;82;21183;-64
2021/01/04 10:36:46;;;;;;;45.63;32.85;;;;;;;2.65;82.81;98382.21;1736154;82;21005;-63
2021/01/04 10:39:20;;;;;;;49.83;36.65;;;;;;;2.67;82.82;98367.98;1725668;82;20946;-64
2021/01/04 10:41:47;;;;;;;41.95;32.95;;;;;;;2.70;82.87;98367.02;1767788;80;21094;-63
2021/01/04 10:44:25;;;;;;;49.83;35.68;;;;;;;2.73;82.79;98365.58;1772593;81;21043;-63
2021/01/04 10:47:17;;;;;;;41.65;32.73;;;;;;;2.76;82.72;98358.83;1772594;80;21367;-63
2021/01/04 10:49:44;;;;;;;51.85;39.27;;;;;;;2.78;82.73;98349.48;1772522;80;20948;-63
2021/01/04 10:52:23;;;;;;;54.53;37.45;;;;;;;2.81;82.72;98347.56;1772546;81;20900;-63
2021/01/04 10:54:52;;;;;;;45.25;33.23;;;;;;;2.82;82.66;98353.29;1772579;81;20928;-64
2021/01/04 10:57:29;;;;;;;45.38;32.58;;;;;;;2.84;82.64;98347.92;1772558;81;21028;-65
2021/01/04 11:00:09;;;;;;;43.02;31.23;;;;;;;2.85;82.54;98346.98;1772680;81;22236;-64
2021/01/04 11:02:41;;;;;;;43.40;32.25;;;;;;;2.85;82.50;98343.89;1772279;81;21070;-66
2021/01/04 11:05:12;;;;;;;45.85;33.78;;;;;;;2.86;82.62;98345.59;1772544;81;21014;-64
2021/01/04 11:07:41;;;;;;;45.45;32.20;;;;;;;2.86;82.74;98354.87;1772627;81;20996;-63
2021/01/04 11:10:28;;;;;;;44.40;30.00;;;;;;;2.87;82.83;98340.70;1772603;80;20980;-64
2021/01/04 11:12:57;;;;;;;53.63;38.13;;;;;;;2.90;82.89;98337.05;1772599;80;21410;-62
2021/01/04 11:15:35;;;;;;;49.33;35.50;;;;;;;2.92;82.96;98337.88;1772539;81;20944;-63
2021/01/04 11:18:11;;;;;;;47.05;32.98;;;;;;;2.92;83.04;98329.91;1772552;81;21389;-63
2021/01/04 11:20:41;;;;;;;36.17;28.80;;;;;;;2.92;83.15;98329.03;1772535;81;20996;-63
2021/01/04 11:23:13;;;;;;;47.45;32.48;;;;;;;2.91;83.07;98320.69;1772661;81;21373;-64
2021/01/04 11:25:44;;;;;;;47.13;33.58;;;;;;;2.93;83.11;98322.80;1772519;81;21360;-64
2021/01/04 11:28:13;;;;;;;43.33;31.77;;;;;;;2.92;83.05;98320.62;1772513;81;20964;-63
2021/01/04 11:30:42;;;;;;;37.38;26.15;;;;;;;2.93;83.28;98320.16;1770628;81;20956;-64
2021/01/04 11:33:14;;;;;;;35.30;27.00;;;;;;;2.94;83.38;98317.44;1772465;81;20992;-64
2021/01/04 11:35:40;;;;;;;28.77;22.37;;;;;;;2.96;83.27;98313.40;1772524;81;21019;-63
2021/01/04 11:38:09;;;;;;;33.90;26.45;;;;;;;2.99;83.11;98317.26;1772547;80;22790;-63
2021/01/04 11:40:36;;;;;;;39.92;29.65;;;;;;;2.98;83.02;98311.54;1763622;80;21974;-64
2021/01/04 11:43:04;;;;;;;43.58;29.82;;;;;;;2.98;83.14;98310.21;1736152;81;20946;-63
2021/01/04 11:45:32;;;;;;;39.10;29.72;;;;;;;2.98;83.28;98310.21;1736133;82;20965;-64
2021/01/04 11:47:59;;;;;;;39.25;28.62;;;;;;;2.99;83.44;98307.50;1736148;82;21033;-64
2021/01/04 11:50:27;;;;;;;37.55;28.57;;;;;;;3.02;83.46;98307.84;1736239;82;22086;-65
2021/01/04 11:52:56;;;;;;;43.15;31.33;;;;;;;3.04;83.35;98302.89;1736098;82;20974;-62
2021/01/04 11:55:25;;;;;;;39.95;30.68;;;;;;;3.07;83.20;98305.42;1736173;82;20954;-62
2021/01/04 11:57:54;;;;;;;39.50;29.82;;;;;;;3.08;83.04;98304.48;1736112;82;20947;-63
2021/01/04 12:00:24;;;;;;;42.62;31.17;;;;;;;3.10;82.94;98299.11;1736149;82;20942;-64
2021/01/04 12:02:51;;;;;;;43.48;33.08;;;;;;;3.13;83.01;98300.78;1736094;82;22311;-64
2021/01/04 12:05:19;;;;;;;45.08;33.90;;;;;;;3.15;83.16;98299.78;1736078;82;21049;-64
2021/01/04 12:07:46;;;;;;;41.88;33.63;;;;;;;3.18;83.14;98296.14;1736143;82;21045;-64
2021/01/04 12:10:17;;;;;;;39.23;30.35;;;;;;;3.20;83.14;98297.82;1736093;82;20962;-64
2021/01/04 12:12:44;;;;;;;41.92;32.33;;;;;;;3.21;83.01;98288.91;1736218;82;20962;-64
2021/01/04 12:15:14;;;;;;;49.42;36.10;;;;;;;3.24;82.89;98291.44;1736213;82;21184;-64
2021/01/04 12:17:41;;;;;;;45.30;34.23;;;;;;;3.28;82.96;98293.97;1736318;82;20922;-66
2021/01/04 12:20:11;;;;;;;53.17;35.90;;;;;;;3.29;83.07;98284.61;1736296;82;21025;-63
2021/01/04 12:22:39;;;;;;;50.90;34.90;;;;;;;3.31;83.13;98287.20;1736210;82;21431;-65
2021/01/04 12:25:10;;;;;;;41.50;33.45;;;;;;;3.33;83.13;98286.70;1736295;82;20993;-63
2021/01/04 12:27:38;;;;;;;38.33;31.70;;;;;;;3.36;83.12;98283.88;1736375;82;22286;-63
2021/01/04 12:30:07;;;;;;;47.62;33.55;;;;;;;3.37;82.98;98288.28;1736186;82;20966;-62
2021/01/04 12:32:34;;;;;;;50.45;34.73;;;;;;;3.39;82.93;98285.09;1736263;82;21447;-63
2021/01/04 12:35:03;;;;;;;44.83;35.05;;;;;;;3.41;82.85;98284.58;1736360;82;21003;-64
2021/01/04 12:37:32;;;;;;;47.10;34.05;;;;;;;3.41;82.78;98287.23;1736343;82;20906;-63
2021/01/04 12:39:59;;;;;;;66.12;44.15;;;;;;;3.45;82.79;98288.81;1736285;82;21327;-64
2021/01/04 12:42:27;;;;;;;52.17;40.03;;;;;;;3.46;82.68;98279.08;1768109;80;21488;-64
2021/01/04 12:44:55;;;;;;;55.95;40.43;;;;;;;3.48;82.59;98282.05;1772705;81;20908;-65
2021/01/04 12:47:23;;;;;;;68.42;39.92;;;;;;;3.48;82.46;98275.88;1772599;80;21464;-64
2021/01/04 12:49:51;;;;;;;43.23;33.45;;;;;;;3.46;82.32;98274.62;1772647;81;21003;-64
2021/01/04 12:52:18;;;;;;;49.88;41.50;;;;;;;3.45;82.35;98256.95;1772657;81;21456;-64
2021/01/04 12:54:45;;;;;;;47.73;39.25;;;;;;;3.45;82.34;98268.90;1772664;81;20952;-63
2021/01/04 12:57:14;;;;;;;51.48;36.95;;;;;;;3.46;82.45;98263.14;1772677;81;20904;-63
2021/01/04 12:59:41;;;;;;;87.40;62.62;;;;;;;3.45;82.55;98264.91;1772629;81;21000;-65
2021/01/04 13:02:10;;;;;;;56.20;43.58;;;;;;;3.45;82.68;98262.26;1772246;81;21075;-63
2021/01/04 13:04:41;;;;;;;50.65;37.25;;;;;;;3.43;82.69;98262.80;1772588;81;22238;-62
2021/01/04 13:07:09;;;;;;;51.50;39.33;;;;;;;3.44;82.53;98263.21;1772475;81;21007;-62
2021/01/04 13:09:36;;;;;;;61.02;43.60;;;;;;;3.44;82.56;98264.06;1772713;81;21043;-62
2021/01/04 13:12:05;;;;;;;65.70;40.48;;;;;;;3.42;82.60;98262.39;1772640;81;21350;-64
2021/01/04 13:14:33;;;;;;;54.23;40.10;;;;;;;3.41;82.58;98260.69;1772678;81;20920;-63
2021/01/04 13:17:00;;;;;;;50.15;36.10;;;;;;;3.41;82.67;98258.03;1772607;81;21367;-64
2021/01/04 13:19:29;;;;;;;49.18;37.13;;;;;;;3.41;82.76;98265.99;1772518;81;21978;-66
2021/01/04 13:22:00;;;;;;;61.77;44.83;;;;;;;3.41;82.82;98262.86;1772621;81;20940;-64
2021/01/04 13:24:29;;;;;;;53.42;38.73;;;;;;;3.42;82.84;98257.08;1772629;81;21019;-64
2021/01/04 13:26:59;;;;;;;52.58;38.13;;;;;;;3.40;82.79;98257.14;1772532;81;21027;-63
2021/01/04 13:29:29;;;;;;;47.23;35.80;;;;;;;3.40;82.78;98262.93;1772624;81;21335;-64
2021/01/04 13:32:05;;;;;;;61.13;41.28;;;;;;;3.40;82.87;98274.88;1772603;81;20944;-64
2021/01/04 13:34:33;;;;;;;47.80;35.92;;;;;;;3.40;82.93;98280.19;1772655;81;20936;-62
